sensor_id;sensor_type;location;lat;lon;timestamp;P1;durP1;ratioP1;P2;durP2;ratioP2
66429;SDS011;53242;51.694;10.006;2022-12-07T00:01:04;20.30;;;6.38;;
66429;SDS011;53242;51.694;10.006;2022-12-07T00:03:30;19.30;;;7.70;;
66429;SDS011;53242;51.694;10.006;2022-12-07T00:05:53;21.52;;;7.05;;
66429;SDS011;53242;51.694;10.006;2022-12-07T00:08:19;20.00;;;7.30;;
66429;SDS011;53242;51.694;10.006;2022-12-07T00:10:41;15.77;;;5.72;;
66429;SDS011;53242;51.694;10.006;2022-12-07T00:13:04;19.85;;;7.28;;
66429;SDS011;53242;51.694;10.006;2022-12-07T00:15:26;17.15;;;5.50;;
66429;SDS011;53242;51.694;10.006;2022-12-07T00:17:48;21.17;;;7.20;;
66429;SDS011;53242;51.694;10.006;2022-12-07T00:20:11;18.60;;;6.55;;
66429;SDS011;53242;51.694;10.006;2022-12-07T00:22:33;14.70;;;5.30;;
66429;SDS011;53242;51.694;10.006;2022-12-07T00:24:55;21.65;;;7.20;;
66429;SDS011;53242;51.694;10.006;2022-12-07T00:27:18;22.67;;;7.10;;
66429;SDS011;53242;51.694;10.006;2022-12-07T00:29:40;18.02;;;6.60;;
66429;SDS011;53242;51.694;10.006;2022-12-07T00:32:03;19.88;;;6.93;;
66429;SDS011;53242;51.694;10.006;2022-12-07T00:34:25;21.77;;;7.35;;
66429;SDS011;53242;51.694;10.006;2022-12-07T00:36:48;22.33;;;6.85;;
66429;SDS011;53242;51.694;10.006;2022-12-07T00:39:10;21.92;;;6.63;;
66429;SDS011;53242;51.694;10.006;2022-12-07T00:41:33;20.83;;;7.55;;
66429;SDS011;53242;51.694;10.006;2022-12-07T00:43:55;13.95;;;5.22;;
66429;SDS011;53242;51.694;10.006;2022-12-07T00:46:19;20.63;;;7.28;;
66429;SDS011;53242;51.694;10.006;2022-12-07T00:48:42;16.38;;;5.95;;
66429;SDS011;53242;51.694;10.006;2022-12-07T00:51:05;22.55;;;7.28;;
66429;SDS011;53242;51.694;10.006;2022-12-07T00:53:28;22.98;;;7.00;;
66429;SDS011;53242;51.694;10.006;2022-12-07T00:55:50;18.60;;;7.70;;
66429;SDS011;53242;51.694;10.006;2022-12-07T00:58:14;18.45;;;6.13;;
66429;SDS011;53242;51.694;10.006;2022-12-07T01:00:38;19.05;;;6.32;;
66429;SDS011;53242;51.694;10.006;2022-12-07T01:03:01;17.67;;;6.40;;
66429;SDS011;53242;51.694;10.006;2022-12-07T01:05:24;18.27;;;6.78;;
66429;SDS011;53242;51.694;10.006;2022-12-07T01:07:47;18.17;;;6.43;;
66429;SDS011;53242;51.694;10.006;2022-12-07T01:10:09;14.90;;;6.20;;
66429;SDS011;53242;51.694;10.006;2022-12-07T01:12:32;14.93;;;5.38;;
66429;SDS011;53242;51.694;10.006;2022-12-07T01:14:54;16.42;;;6.10;;
66429;SDS011;53242;51.694;10.006;2022-12-07T01:17:16;16.00;;;6.30;;
66429;SDS011;53242;51.694;10.006;2022-12-07T01:19:39;19.83;;;7.53;;
66429;SDS011;53242;51.694;10.006;2022-12-07T01:22:01;16.00;;;5.35;;
66429;SDS011;53242;51.694;10.006;2022-12-07T01:24:24;17.20;;;5.68;;
66429;SDS011;53242;51.694;10.006;2022-12-07T01:26:48;19.70;;;5.63;;
66429;SDS011;53242;51.694;10.006;2022-12-07T01:29:11;15.80;;;5.05;;
66429;SDS011;53242;51.694;10.006;2022-12-07T01:31:33;18.63;;;6.32;;
66429;SDS011;53242;51.694;10.006;2022-12-07T01:33:57;14.88;;;5.55;;
66429;SDS011;53242;51.694;10.006;2022-12-07T01:36:22;21.52;;;6.72;;
66429;SDS011;53242;51.694;10.006;2022-12-07T01:38:46;16.15;;;5.82;;
66429;SDS011;53242;51.694;10.006;2022-12-07T01:41:10;17.48;;;5.95;;
66429;SDS011;53242;51.694;10.006;2022-12-07T01:43:34;18.45;;;6.53;;
66429;SDS011;53242;51.694;10.006;2022-12-07T01:45:56;18.50;;;6.18;;
66429;SDS011;53242;51.694;10.006;2022-12-07T01:48:26;17.17;;;5.70;;
66429;SDS011;53242;51.694;10.006;2022-12-07T01:50:51;17.02;;;6.22;;
66429;SDS011;53242;51.694;10.006;2022-12-07T01:53:15;17.17;;;6.38;;
66429;SDS011;53242;51.694;10.006;2022-12-07T01:55:40;16.38;;;6.05;;
66429;SDS011;53242;51.694;10.006;2022-12-07T01:58:05;20.60;;;6.43;;
66429;SDS011;53242;51.694;10.006;2022-12-07T02:00:28;21.33;;;6.50;;
66429;SDS011;53242;51.694;10.006;2022-12-07T02:02:53;18.92;;;6.00;;
66429;SDS011;53242;51.694;10.006;2022-12-07T02:05:28;15.75;;;6.13;;
66429;SDS011;53242;51.694;10.006;2022-12-07T02:07:51;17.50;;;6.15;;
66429;SDS011;53242;51.694;10.006;2022-12-07T02:10:18;13.40;;;5.38;;
66429;SDS011;53242;51.694;10.006;2022-12-07T02:12:41;18.15;;;6.40;;
66429;SDS011;53242;51.694;10.006;2022-12-07T02:15:07;10.13;;;3.70;;
66429;SDS011;53242;51.694;10.006;2022-12-07T02:17:37;19.05;;;6.03;;
66429;SDS011;53242;51.694;10.006;2022-12-07T02:25:34;17.67;;;5.93;;
66429;SDS011;53242;51.694;10.006;2022-12-07T02:28:05;11.25;;;4.15;;
66429;SDS011;53242;51.694;10.006;2022-12-07T02:30:35;15.55;;;6.07;;
66429;SDS011;53242;51.694;10.006;2022-12-07T02:33:07;15.27;;;4.80;;
66429;SDS011;53242;51.694;10.006;2022-12-07T02:40:44;17.80;;;6.28;;
66429;SDS011;53242;51.694;10.006;2022-12-07T02:43:22;15.18;;;6.05;;
66429;SDS011;53242;51.694;10.006;2022-12-07T02:45:47;16.27;;;5.88;;
66429;SDS011;53242;51.694;10.006;2022-12-07T02:48:14;15.80;;;5.50;;
66429;SDS011;53242;51.694;10.006;2022-12-07T02:50:39;18.40;;;5.97;;
66429;SDS011;53242;51.694;10.006;2022-12-07T02:53:27;17.42;;;6.30;;
66429;SDS011;53242;51.694;10.006;2022-12-07T02:55:52;16.17;;;5.70;;
66429;SDS011;53242;51.694;10.006;2022-12-07T02:58:19;15.88;;;5.90;;
66429;SDS011;53242;51.694;10.006;2022-12-07T03:01:04;19.83;;;6.97;;
66429;SDS011;53242;51.694;10.006;2022-12-07T03:03:38;16.05;;;5.75;;
66429;SDS011;53242;51.694;10.006;2022-12-07T03:09:00;18.42;;;6.65;;
66429;SDS011;53242;51.694;10.006;2022-12-07T03:11:34;15.15;;;5.85;;
66429;SDS011;53242;51.694;10.006;2022-12-07T03:19:34;17.85;;;6.18;;
66429;SDS011;53242;51.694;10.006;2022-12-07T03:22:12;20.90;;;7.28;;
66429;SDS011;53242;51.694;10.006;2022-12-07T03:24:37;20.35;;;6.47;;
66429;SDS011;53242;51.694;10.006;2022-12-07T03:27:13;16.85;;;5.35;;
66429;SDS011;53242;51.694;10.006;2022-12-07T03:29:49;20.30;;;6.82;;
66429;SDS011;53242;51.694;10.006;2022-12-07T03:32:19;19.92;;;6.82;;
66429;SDS011;53242;51.694;10.006;2022-12-07T03:34:50;19.67;;;6.85;;
66429;SDS011;53242;51.694;10.006;2022-12-07T03:37:23;20.42;;;6.57;;
66429;SDS011;53242;51.694;10.006;2022-12-07T03:42:39;19.88;;;6.78;;
66429;SDS011;53242;51.694;10.006;2022-12-07T03:45:03;19.58;;;7.05;;
66429;SDS011;53242;51.694;10.006;2022-12-07T03:47:28;20.13;;;6.53;;
66429;SDS011;53242;51.694;10.006;2022-12-07T03:49:57;19.75;;;6.25;;
66429;SDS011;53242;51.694;10.006;2022-12-07T03:52:26;18.58;;;6.40;;
66429;SDS011;53242;51.694;10.006;2022-12-07T03:57:25;19.60;;;6.25;;
66429;SDS011;53242;51.694;10.006;2022-12-07T03:59:49;22.15;;;7.85;;
66429;SDS011;53242;51.694;10.006;2022-12-07T04:02:13;18.48;;;6.95;;
66429;SDS011;53242;51.694;10.006;2022-12-07T04:04:36;19.23;;;6.60;;
66429;SDS011;53242;51.694;10.006;2022-12-07T04:06:59;21.63;;;7.85;;
66429;SDS011;53242;51.694;10.006;2022-12-07T04:09:21;18.52;;;7.07;;
66429;SDS011;53242;51.694;10.006;2022-12-07T04:11:44;18.77;;;6.75;;
66429;SDS011;53242;51.694;10.006;2022-12-07T04:14:06;20.38;;;7.20;;
66429;SDS011;53242;51.694;10.006;2022-12-07T04:16:55;20.50;;;6.03;;
66429;SDS011;53242;51.694;10.006;2022-12-07T04:19:19;21.13;;;6.93;;
66429;SDS011;53242;51.694;10.006;2022-12-07T04:21:43;21.58;;;7.72;;
66429;SDS011;53242;51.694;10.006;2022-12-07T04:24:05;23.27;;;7.07;;
66429;SDS011;53242;51.694;10.006;2022-12-07T04:26:28;19.90;;;6.53;;
66429;SDS011;53242;51.694;10.006;2022-12-07T04:28:50;19.75;;;6.47;;
66429;SDS011;53242;51.694;10.006;2022-12-07T04:31:12;21.60;;;7.88;;
66429;SDS011;53242;51.694;10.006;2022-12-07T04:33:35;24.92;;;7.45;;
66429;SDS011;53242;51.694;10.006;2022-12-07T04:35:58;22.15;;;7.03;;
66429;SDS011;53242;51.694;10.006;2022-12-07T04:38:20;20.70;;;7.80;;
66429;SDS011;53242;51.694;10.006;2022-12-07T04:40:43;19.70;;;6.95;;
66429;SDS011;53242;51.694;10.006;2022-12-07T04:43:05;26.45;;;9.23;;
66429;SDS011;53242;51.694;10.006;2022-12-07T04:45:27;36.42;;;11.18;;
66429;SDS011;53242;51.694;10.006;2022-12-07T04:47:50;28.25;;;8.15;;
66429;SDS011;53242;51.694;10.006;2022-12-07T04:50:12;69.55;;;19.00;;
66429;SDS011;53242;51.694;10.006;2022-12-07T04:52:34;45.78;;;13.82;;
66429;SDS011;53242;51.694;10.006;2022-12-07T04:54:57;32.65;;;10.35;;
66429;SDS011;53242;51.694;10.006;2022-12-07T04:57:19;23.38;;;8.93;;
66429;SDS011;53242;51.694;10.006;2022-12-07T04:59:41;28.10;;;9.13;;
66429;SDS011;53242;51.694;10.006;2022-12-07T05:02:04;30.02;;;9.43;;
66429;SDS011;53242;51.694;10.006;2022-12-07T05:04:26;24.48;;;7.85;;
66429;SDS011;53242;51.694;10.006;2022-12-07T05:06:49;25.33;;;8.68;;
66429;SDS011;53242;51.694;10.006;2022-12-07T05:09:11;25.48;;;8.93;;
66429;SDS011;53242;51.694;10.006;2022-12-07T05:11:33;22.85;;;8.05;;
66429;SDS011;53242;51.694;10.006;2022-12-07T05:14:02;22.05;;;7.85;;
66429;SDS011;53242;51.694;10.006;2022-12-07T05:16:25;22.83;;;8.15;;
66429;SDS011;53242;51.694;10.006;2022-12-07T05:18:48;23.13;;;7.55;;
66429;SDS011;53242;51.694;10.006;2022-12-07T05:21:10;21.33;;;7.15;;
66429;SDS011;53242;51.694;10.006;2022-12-07T05:23:33;22.23;;;7.28;;
66429;SDS011;53242;51.694;10.006;2022-12-07T05:25:55;29.75;;;8.38;;
66429;SDS011;53242;51.694;10.006;2022-12-07T05:28:17;22.52;;;8.88;;
66429;SDS011;53242;51.694;10.006;2022-12-07T05:30:40;19.85;;;7.53;;
66429;SDS011;53242;51.694;10.006;2022-12-07T05:33:02;22.58;;;7.53;;
66429;SDS011;53242;51.694;10.006;2022-12-07T05:35:25;19.95;;;6.45;;
66429;SDS011;53242;51.694;10.006;2022-12-07T05:37:47;17.98;;;6.45;;
66429;SDS011;53242;51.694;10.006;2022-12-07T05:40:10;22.25;;;6.38;;
66429;SDS011;53242;51.694;10.006;2022-12-07T05:42:35;20.88;;;6.80;;
66429;SDS011;53242;51.694;10.006;2022-12-07T05:44:57;20.10;;;6.63;;
66429;SDS011;53242;51.694;10.006;2022-12-07T05:47:20;20.90;;;6.22;;
66429;SDS011;53242;51.694;10.006;2022-12-07T05:49:43;18.52;;;6.25;;
66429;SDS011;53242;51.694;10.006;2022-12-07T05:52:05;22.42;;;7.20;;
66429;SDS011;53242;51.694;10.006;2022-12-07T05:54:28;20.35;;;7.05;;
66429;SDS011;53242;51.694;10.006;2022-12-07T05:56:50;18.23;;;5.95;;
66429;SDS011;53242;51.694;10.006;2022-12-07T05:59:13;23.00;;;6.95;;
66429;SDS011;53242;51.694;10.006;2022-12-07T06:01:44;20.83;;;7.68;;
66429;SDS011;53242;51.694;10.006;2022-12-07T06:04:07;20.35;;;6.78;;
66429;SDS011;53242;51.694;10.006;2022-12-07T06:06:29;19.00;;;6.78;;
66429;SDS011;53242;51.694;10.006;2022-12-07T06:08:51;18.00;;;6.63;;
66429;SDS011;53242;51.694;10.006;2022-12-07T06:11:14;21.73;;;6.72;;
66429;SDS011;53242;51.694;10.006;2022-12-07T06:13:55;23.95;;;7.55;;
66429;SDS011;53242;51.694;10.006;2022-12-07T06:16:17;18.10;;;6.82;;
66429;SDS011;53242;51.694;10.006;2022-12-07T06:18:39;21.30;;;7.10;;
66429;SDS011;53242;51.694;10.006;2022-12-07T06:21:02;22.05;;;7.03;;
66429;SDS011;53242;51.694;10.006;2022-12-07T06:23:24;23.17;;;7.47;;
66429;SDS011;53242;51.694;10.006;2022-12-07T06:25:46;21.58;;;7.57;;
66429;SDS011;53242;51.694;10.006;2022-12-07T06:28:09;23.90;;;7.72;;
66429;SDS011;53242;51.694;10.006;2022-12-07T06:30:31;21.15;;;7.00;;
66429;SDS011;53242;51.694;10.006;2022-12-07T06:32:53;20.27;;;7.80;;
66429;SDS011;53242;51.694;10.006;2022-12-07T06:35:16;26.00;;;7.95;;
66429;SDS011;53242;51.694;10.006;2022-12-07T06:37:38;28.55;;;9.05;;
66429;SDS011;53242;51.694;10.006;2022-12-07T06:40:00;27.98;;;9.55;;
66429;SDS011;53242;51.694;10.006;2022-12-07T06:42:23;22.05;;;8.82;;
66429;SDS011;53242;51.694;10.006;2022-12-07T06:44:46;25.80;;;8.40;;
66429;SDS011;53242;51.694;10.006;2022-12-07T06:47:08;21.95;;;7.95;;
66429;SDS011;53242;51.694;10.006;2022-12-07T06:49:31;24.60;;;7.10;;
66429;SDS011;53242;51.694;10.006;2022-12-07T06:51:53;19.30;;;6.97;;
66429;SDS011;53242;51.694;10.006;2022-12-07T06:54:16;21.15;;;6.45;;
66429;SDS011;53242;51.694;10.006;2022-12-07T06:56:38;20.05;;;6.53;;
66429;SDS011;53242;51.694;10.006;2022-12-07T06:59:01;20.88;;;6.97;;
66429;SDS011;53242;51.694;10.006;2022-12-07T07:01:27;18.05;;;5.90;;
66429;SDS011;53242;51.694;10.006;2022-12-07T07:03:49;15.35;;;5.82;;
66429;SDS011;53242;51.694;10.006;2022-12-07T07:06:12;19.00;;;6.40;;
66429;SDS011;53242;51.694;10.006;2022-12-07T07:08:35;19.77;;;6.47;;
66429;SDS011;53242;51.694;10.006;2022-12-07T07:10:58;20.77;;;5.63;;
66429;SDS011;53242;51.694;10.006;2022-12-07T07:13:20;17.15;;;6.00;;
66429;SDS011;53242;51.694;10.006;2022-12-07T07:15:43;19.70;;;6.18;;
66429;SDS011;53242;51.694;10.006;2022-12-07T07:18:05;18.83;;;6.10;;
66429;SDS011;53242;51.694;10.006;2022-12-07T07:20:28;17.38;;;5.75;;
66429;SDS011;53242;51.694;10.006;2022-12-07T07:22:50;16.92;;;5.55;;
66429;SDS011;53242;51.694;10.006;2022-12-07T07:25:15;14.65;;;5.00;;
66429;SDS011;53242;51.694;10.006;2022-12-07T07:27:38;19.77;;;5.93;;
66429;SDS011;53242;51.694;10.006;2022-12-07T07:30:00;14.73;;;5.10;;
66429;SDS011;53242;51.694;10.006;2022-12-07T07:32:22;15.30;;;4.85;;
66429;SDS011;53242;51.694;10.006;2022-12-07T07:34:45;12.15;;;4.53;;
66429;SDS011;53242;51.694;10.006;2022-12-07T07:37:07;15.20;;;4.90;;
66429;SDS011;53242;51.694;10.006;2022-12-07T07:39:29;15.07;;;4.30;;
66429;SDS011;53242;51.694;10.006;2022-12-07T07:41:52;17.20;;;4.78;;
66429;SDS011;53242;51.694;10.006;2022-12-07T07:44:21;14.73;;;5.05;;
66429;SDS011;53242;51.694;10.006;2022-12-07T07:46:43;16.75;;;5.35;;
66429;SDS011;53242;51.694;10.006;2022-12-07T07:49:06;16.42;;;4.43;;
66429;SDS011;53242;51.694;10.006;2022-12-07T07:51:28;14.40;;;4.72;;
66429;SDS011;53242;51.694;10.006;2022-12-07T07:53:50;12.93;;;4.60;;
66429;SDS011;53242;51.694;10.006;2022-12-07T07:56:13;12.93;;;3.97;;
66429;SDS011;53242;51.694;10.006;2022-12-07T07:58:35;16.88;;;4.80;;
66429;SDS011;53242;51.694;10.006;2022-12-07T08:01:02;12.57;;;4.28;;
66429;SDS011;53242;51.694;10.006;2022-12-07T08:03:27;9.95;;;3.40;;
66429;SDS011;53242;51.694;10.006;2022-12-07T08:05:49;12.95;;;4.70;;
66429;SDS011;53242;51.694;10.006;2022-12-07T08:08:11;15.13;;;4.30;;
66429;SDS011;53242;51.694;10.006;2022-12-07T08:10:34;13.25;;;4.47;;
66429;SDS011;53242;51.694;10.006;2022-12-07T08:12:57;22.30;;;4.80;;
66429;SDS011;53242;51.694;10.006;2022-12-07T08:15:36;18.00;;;5.22;;
66429;SDS011;53242;51.694;10.006;2022-12-07T08:18:00;16.63;;;4.18;;
66429;SDS011;53242;51.694;10.006;2022-12-07T08:20:22;9.40;;;3.15;;
66429;SDS011;53242;51.694;10.006;2022-12-07T08:22:45;12.73;;;2.70;;
66429;SDS011;53242;51.694;10.006;2022-12-07T08:25:07;8.90;;;3.03;;
66429;SDS011;53242;51.694;10.006;2022-12-07T08:27:29;11.60;;;3.15;;
66429;SDS011;53242;51.694;10.006;2022-12-07T08:29:52;16.27;;;3.70;;
66429;SDS011;53242;51.694;10.006;2022-12-07T08:32:14;9.75;;;3.40;;
66429;SDS011;53242;51.694;10.006;2022-12-07T08:34:37;11.35;;;3.45;;
66429;SDS011;53242;51.694;10.006;2022-12-07T08:36:59;11.13;;;3.97;;
66429;SDS011;53242;51.694;10.006;2022-12-07T08:39:21;14.52;;;4.53;;
66429;SDS011;53242;51.694;10.006;2022-12-07T08:41:44;14.35;;;4.80;;
66429;SDS011;53242;51.694;10.006;2022-12-07T08:44:06;18.17;;;5.15;;
66429;SDS011;53242;51.694;10.006;2022-12-07T08:46:36;23.23;;;6.28;;
66429;SDS011;53242;51.694;10.006;2022-12-07T08:49:10;11.45;;;3.80;;
66429;SDS011;53242;51.694;10.006;2022-12-07T08:51:35;17.98;;;5.68;;
66429;SDS011;53242;51.694;10.006;2022-12-07T08:53:58;21.25;;;5.90;;
66429;SDS011;53242;51.694;10.006;2022-12-07T08:56:23;21.38;;;6.63;;
66429;SDS011;53242;51.694;10.006;2022-12-07T08:58:46;20.20;;;5.38;;
66429;SDS011;53242;51.694;10.006;2022-12-07T09:01:09;13.00;;;4.00;;
66429;SDS011;53242;51.694;10.006;2022-12-07T09:03:32;25.45;;;7.40;;
66429;SDS011;53242;51.694;10.006;2022-12-07T09:05:54;24.67;;;6.90;;
66429;SDS011;53242;51.694;10.006;2022-12-07T09:08:16;18.13;;;5.78;;
66429;SDS011;53242;51.694;10.006;2022-12-07T09:10:39;13.95;;;3.30;;
66429;SDS011;53242;51.694;10.006;2022-12-07T09:13:01;15.52;;;4.25;;
66429;SDS011;53242;51.694;10.006;2022-12-07T09:15:24;12.90;;;4.88;;
66429;SDS011;53242;51.694;10.006;2022-12-07T09:17:46;7.80;;;3.10;;
66429;SDS011;53242;51.694;10.006;2022-12-07T09:20:09;10.43;;;3.78;;
66429;SDS011;53242;51.694;10.006;2022-12-07T09:22:32;9.18;;;2.78;;
66429;SDS011;53242;51.694;10.006;2022-12-07T09:24:55;12.73;;;4.07;;
66429;SDS011;53242;51.694;10.006;2022-12-07T09:27:17;10.70;;;3.28;;
66429;SDS011;53242;51.694;10.006;2022-12-07T09:29:40;10.00;;;3.35;;
66429;SDS011;53242;51.694;10.006;2022-12-07T09:32:02;7.65;;;2.58;;
66429;SDS011;53242;51.694;10.006;2022-12-07T09:34:25;10.48;;;4.07;;
66429;SDS011;53242;51.694;10.006;2022-12-07T09:36:48;9.10;;;3.35;;
66429;SDS011;53242;51.694;10.006;2022-12-07T09:39:11;6.65;;;2.65;;
66429;SDS011;53242;51.694;10.006;2022-12-07T09:41:33;10.48;;;2.58;;
66429;SDS011;53242;51.694;10.006;2022-12-07T09:44:05;9.35;;;3.28;;
66429;SDS011;53242;51.694;10.006;2022-12-07T09:48:57;9.50;;;2.95;;
66429;SDS011;53242;51.694;10.006;2022-12-07T09:51:20;7.00;;;2.67;;
66429;SDS011;53242;51.694;10.006;2022-12-07T09:53:45;4.47;;;1.92;;
66429;SDS011;53242;51.694;10.006;2022-12-07T09:56:11;10.90;;;3.22;;
66429;SDS011;53242;51.694;10.006;2022-12-07T09:58:35;6.45;;;2.05;;
66429;SDS011;53242;51.694;10.006;2022-12-07T10:05:51;12.15;;;3.50;;
66429;SDS011;53242;51.694;10.006;2022-12-07T10:08:15;7.38;;;2.70;;
66429;SDS011;53242;51.694;10.006;2022-12-07T10:10:40;9.35;;;3.05;;
66429;SDS011;53242;51.694;10.006;2022-12-07T10:13:07;8.63;;;2.70;;
66429;SDS011;53242;51.694;10.006;2022-12-07T10:21:00;4.43;;;1.65;;
66429;SDS011;53242;51.694;10.006;2022-12-07T10:23:25;9.85;;;3.45;;
66429;SDS011;53242;51.694;10.006;2022-12-07T10:25:47;8.27;;;2.42;;
66429;SDS011;53242;51.694;10.006;2022-12-07T10:28:13;11.00;;;3.50;;
66429;SDS011;53242;51.694;10.006;2022-12-07T10:33:53;8.02;;;2.72;;
66429;SDS011;53242;51.694;10.006;2022-12-07T10:36:22;7.20;;;2.22;;
66429;SDS011;53242;51.694;10.006;2022-12-07T10:39:04;9.00;;;3.20;;
66429;SDS011;53242;51.694;10.006;2022-12-07T10:41:34;10.88;;;3.90;;
66429;SDS011;53242;51.694;10.006;2022-12-07T10:43:57;8.10;;;3.20;;
66429;SDS011;53242;51.694;10.006;2022-12-07T10:54:18;14.13;;;4.20;;
66429;SDS011;53242;51.694;10.006;2022-12-07T10:56:51;8.90;;;3.13;;
66429;SDS011;53242;51.694;10.006;2022-12-07T10:59:35;8.10;;;3.28;;
66429;SDS011;53242;51.694;10.006;2022-12-07T11:10:07;7.75;;;2.40;;
66429;SDS011;53242;51.694;10.006;2022-12-07T11:22:49;3.83;;;1.52;;
66429;SDS011;53242;51.694;10.006;2022-12-07T11:30:33;10.93;;;2.50;;
66429;SDS011;53242;51.694;10.006;2022-12-07T11:33:15;3.00;;;1.38;;
66429;SDS011;53242;51.694;10.006;2022-12-07T11:38:40;7.57;;;2.10;;
66429;SDS011;53242;51.694;10.006;2022-12-07T11:41:06;4.93;;;2.38;;
66429;SDS011;53242;51.694;10.006;2022-12-07T11:43:34;4.85;;;1.98;;
66429;SDS011;53242;51.694;10.006;2022-12-07T11:46:11;7.88;;;2.33;;
66429;SDS011;53242;51.694;10.006;2022-12-07T11:48:40;5.20;;;1.65;;
66429;SDS011;53242;51.694;10.006;2022-12-07T11:51:10;4.90;;;1.70;;
66429;SDS011;53242;51.694;10.006;2022-12-07T11:56:26;5.40;;;2.10;;
66429;SDS011;53242;51.694;10.006;2022-12-07T12:06:31;6.20;;;2.10;;
66429;SDS011;53242;51.694;10.006;2022-12-07T12:17:44;5.10;;;1.60;;
66429;SDS011;53242;51.694;10.006;2022-12-07T12:23:07;6.97;;;2.45;;
66429;SDS011;53242;51.694;10.006;2022-12-07T12:25:48;12.85;;;3.45;;
66429;SDS011;53242;51.694;10.006;2022-12-07T12:28:22;7.15;;;2.13;;
66429;SDS011;53242;51.694;10.006;2022-12-07T12:33:51;5.53;;;1.90;;
66429;SDS011;53242;51.694;10.006;2022-12-07T12:36:26;10.93;;;2.50;;
66429;SDS011;53242;51.694;10.006;2022-12-07T12:43:58;6.30;;;1.60;;
66429;SDS011;53242;51.694;10.006;2022-12-07T12:48:52;4.40;;;1.85;;
66429;SDS011;53242;51.694;10.006;2022-12-07T12:54:04;10.80;;;2.65;;
66429;SDS011;53242;51.694;10.006;2022-12-07T12:59:34;7.90;;;2.25;;
66429;SDS011;53242;51.694;10.006;2022-12-07T13:04:50;8.18;;;2.90;;
66429;SDS011;53242;51.694;10.006;2022-12-07T13:07:13;7.80;;;2.80;;
66429;SDS011;53242;51.694;10.006;2022-12-07T13:10:20;5.50;;;1.45;;
66429;SDS011;53242;51.694;10.006;2022-12-07T13:12:43;8.63;;;2.53;;
66429;SDS011;53242;51.694;10.006;2022-12-07T13:15:22;4.63;;;1.80;;
66429;SDS011;53242;51.694;10.006;2022-12-07T13:17:56;10.70;;;2.80;;
66429;SDS011;53242;51.694;10.006;2022-12-07T13:23:05;7.32;;;2.17;;
66429;SDS011;53242;51.694;10.006;2022-12-07T13:25:36;8.93;;;2.58;;
66429;SDS011;53242;51.694;10.006;2022-12-07T13:30:43;8.73;;;2.72;;
66429;SDS011;53242;51.694;10.006;2022-12-07T13:33:09;6.18;;;2.08;;
66429;SDS011;53242;51.694;10.006;2022-12-07T13:35:36;11.43;;;2.50;;
66429;SDS011;53242;51.694;10.006;2022-12-07T13:38:01;5.65;;;1.85;;
66429;SDS011;53242;51.694;10.006;2022-12-07T13:40:26;6.30;;;2.47;;
66429;SDS011;53242;51.694;10.006;2022-12-07T13:42:56;6.55;;;2.08;;
66429;SDS011;53242;51.694;10.006;2022-12-07T13:45:21;7.75;;;2.55;;
66429;SDS011;53242;51.694;10.006;2022-12-07T13:48:05;8.40;;;2.70;;
66429;SDS011;53242;51.694;10.006;2022-12-07T13:50:31;9.93;;;1.83;;
66429;SDS011;53242;51.694;10.006;2022-12-07T13:52:58;8.95;;;2.65;;
66429;SDS011;53242;51.694;10.006;2022-12-07T13:55:21;5.20;;;2.22;;
66429;SDS011;53242;51.694;10.006;2022-12-07T13:57:44;6.22;;;2.35;;
66429;SDS011;53242;51.694;10.006;2022-12-07T14:00:19;7.70;;;2.45;;
66429;SDS011;53242;51.694;10.006;2022-12-07T14:02:56;7.10;;;2.88;;
66429;SDS011;53242;51.694;10.006;2022-12-07T14:05:35;8.35;;;2.97;;
66429;SDS011;53242;51.694;10.006;2022-12-07T14:07:58;12.52;;;3.38;;
66429;SDS011;53242;51.694;10.006;2022-12-07T14:15:58;7.50;;;2.40;;
66429;SDS011;53242;51.694;10.006;2022-12-07T14:18:28;9.68;;;2.60;;
66429;SDS011;53242;51.694;10.006;2022-12-07T14:21:01;6.47;;;2.63;;
66429;SDS011;53242;51.694;10.006;2022-12-07T14:24:01;9.30;;;3.53;;
66429;SDS011;53242;51.694;10.006;2022-12-07T14:26:29;12.20;;;2.70;;
66429;SDS011;53242;51.694;10.006;2022-12-07T14:28:52;9.55;;;2.58;;
66429;SDS011;53242;51.694;10.006;2022-12-07T14:31:15;9.07;;;3.10;;
66429;SDS011;53242;51.694;10.006;2022-12-07T14:33:39;11.90;;;3.20;;
66429;SDS011;53242;51.694;10.006;2022-12-07T14:36:03;10.25;;;3.72;;
66429;SDS011;53242;51.694;10.006;2022-12-07T14:38:25;9.98;;;3.33;;
66429;SDS011;53242;51.694;10.006;2022-12-07T14:40:48;6.65;;;2.25;;
66429;SDS011;53242;51.694;10.006;2022-12-07T14:43:11;10.88;;;3.83;;
66429;SDS011;53242;51.694;10.006;2022-12-07T14:45:36;11.30;;;3.90;;
66429;SDS011;53242;51.694;10.006;2022-12-07T14:47:58;8.38;;;3.50;;
66429;SDS011;53242;51.694;10.006;2022-12-07T14:50:21;10.68;;;3.55;;
66429;SDS011;53242;51.694;10.006;2022-12-07T14:52:46;15.05;;;3.40;;
66429;SDS011;53242;51.694;10.006;2022-12-07T14:55:33;9.80;;;3.35;;
66429;SDS011;53242;51.694;10.006;2022-12-07T14:57:55;9.88;;;3.53;;
66429;SDS011;53242;51.694;10.006;2022-12-07T15:00:19;12.77;;;3.47;;
66429;SDS011;53242;51.694;10.006;2022-12-07T15:02:43;12.30;;;4.03;;
66429;SDS011;53242;51.694;10.006;2022-12-07T15:05:07;10.63;;;3.53;;
66429;SDS011;53242;51.694;10.006;2022-12-07T15:07:29;8.48;;;2.47;;
66429;SDS011;53242;51.694;10.006;2022-12-07T15:09:52;6.53;;;2.30;;
66429;SDS011;53242;51.694;10.006;2022-12-07T15:12:14;12.77;;;3.65;;
66429;SDS011;53242;51.694;10.006;2022-12-07T15:14:37;9.77;;;4.18;;
66429;SDS011;53242;51.694;10.006;2022-12-07T15:16:59;13.10;;;4.50;;
66429;SDS011;53242;51.694;10.006;2022-12-07T15:19:22;16.77;;;5.95;;
66429;SDS011;53242;51.694;10.006;2022-12-07T15:21:47;10.93;;;3.40;;
66429;SDS011;53242;51.694;10.006;2022-12-07T15:24:10;13.82;;;3.55;;
66429;SDS011;53242;51.694;10.006;2022-12-07T15:26:33;15.75;;;3.60;;
66429;SDS011;53242;51.694;10.006;2022-12-07T15:28:56;13.68;;;4.03;;
66429;SDS011;53242;51.694;10.006;2022-12-07T15:31:18;10.02;;;3.45;;
66429;SDS011;53242;51.694;10.006;2022-12-07T15:33:41;6.13;;;2.92;;
66429;SDS011;53242;51.694;10.006;2022-12-07T15:36:03;10.65;;;3.22;;
66429;SDS011;53242;51.694;10.006;2022-12-07T15:38:26;10.85;;;3.72;;
66429;SDS011;53242;51.694;10.006;2022-12-07T15:40:50;11.63;;;3.55;;
66429;SDS011;53242;51.694;10.006;2022-12-07T15:43:12;11.70;;;3.10;;
66429;SDS011;53242;51.694;10.006;2022-12-07T15:45:53;9.95;;;3.45;;
66429;SDS011;53242;51.694;10.006;2022-12-07T15:48:16;9.35;;;3.30;;
66429;SDS011;53242;51.694;10.006;2022-12-07T15:50:38;8.85;;;3.13;;
66429;SDS011;53242;51.694;10.006;2022-12-07T15:53:00;11.45;;;3.30;;
66429;SDS011;53242;51.694;10.006;2022-12-07T15:55:23;11.50;;;3.60;;
66429;SDS011;53242;51.694;10.006;2022-12-07T15:57:45;10.00;;;3.25;;
66429;SDS011;53242;51.694;10.006;2022-12-07T16:00:08;10.18;;;3.30;;
66429;SDS011;53242;51.694;10.006;2022-12-07T16:02:31;10.80;;;3.72;;
66429;SDS011;53242;51.694;10.006;2022-12-07T16:04:53;9.10;;;3.33;;
66429;SDS011;53242;51.694;10.006;2022-12-07T16:07:15;11.90;;;4.20;;
66429;SDS011;53242;51.694;10.006;2022-12-07T16:09:38;13.05;;;3.83;;
66429;SDS011;53242;51.694;10.006;2022-12-07T16:12:01;8.38;;;3.38;;
66429;SDS011;53242;51.694;10.006;2022-12-07T16:14:23;8.25;;;3.33;;
66429;SDS011;53242;51.694;10.006;2022-12-07T16:16:46;9.65;;;3.20;;
66429;SDS011;53242;51.694;10.006;2022-12-07T16:19:09;11.60;;;3.75;;